createdAt,value
2022-09-20T00:02:45.840Z,8.95
2022-09-20T00:05:36.918Z,8.82
2022-09-20T00:08:22.893Z,8.91
2022-09-20T00:11:21.318Z,8.88
2022-09-20T00:14:11.017Z,8.81
2022-09-20T00:16:57.641Z,8.87
2022-09-20T00:19:43.861Z,8.72
2022-09-20T00:22:30.402Z,8.84
2022-09-20T00:25:17.155Z,8.61
2022-09-20T00:28:03.636Z,9.18
2022-09-20T00:30:49.893Z,8.71
2022-09-20T00:33:54.913Z,8.73
2022-09-20T00:36:41.277Z,8.50
2022-09-20T00:39:27.775Z,9.00
2022-09-20T00:42:15.120Z,8.94
2022-09-20T00:45:05.489Z,8.83
2022-09-20T00:48:04.220Z,8.62
2022-09-20T00:50:57.884Z,9.21
2022-09-20T00:53:47.762Z,8.98
2022-09-20T00:56:36.739Z,8.67
2022-09-20T00:59:25.932Z,8.67
2022-09-20T01:02:21.827Z,8.68
2022-09-20T01:05:08.943Z,8.63
2022-09-20T01:07:55.934Z,8.45
2022-09-20T01:10:42.646Z,8.21
2022-09-20T01:13:29.181Z,8.34
2022-09-20T01:16:16.118Z,8.74
2022-09-20T01:19:10.059Z,8.93
2022-09-20T01:21:56.270Z,9.12
2022-09-20T01:25:10.380Z,8.76
2022-09-20T01:27:56.683Z,8.52
2022-09-20T01:30:52.393Z,8.40
2022-09-20T01:33:49.928Z,8.60
2022-09-20T01:36:45.728Z,8.46
2022-09-20T01:39:40.526Z,8.58
2022-09-20T01:42:33.155Z,8.50
2022-09-20T01:45:24.009Z,8.60
2022-09-20T01:48:30.104Z,9.03
2022-09-20T01:51:54.182Z,9.07
2022-09-20T01:55:18.627Z,9.03
2022-09-20T01:58:35.961Z,9.07
2022-09-20T02:01:46.235Z,9.68
2022-09-20T02:04:57.185Z,9.44
2022-09-20T02:08:01.962Z,9.90
2022-09-20T02:11:08.603Z,10.13
2022-09-20T02:14:20.533Z,10.53
2022-09-20T02:17:14.394Z,10.55
2022-09-20T02:20:16.138Z,11.06
2022-09-20T02:23:35.077Z,11.20
2022-09-20T02:26:36.556Z,11.57
2022-09-20T02:29:41.271Z,11.42
2022-09-20T02:32:58.508Z,11.13
2022-09-20T02:36:17.577Z,10.47
2022-09-20T02:39:17.049Z,11.42
2022-09-20T02:42:17.841Z,10.83
2022-09-20T02:45:12.768Z,11.29
2022-09-20T02:48:03.954Z,11.29
2022-09-20T02:51:06.365Z,11.49
2022-09-20T02:54:24.808Z,11.24
2022-09-20T02:57:40.848Z,11.25
2022-09-20T03:00:27.934Z,11.64
2022-09-20T03:03:17.409Z,11.47
2022-09-20T03:06:17.630Z,11.60
2022-09-20T03:09:13.315Z,11.15
2022-09-20T03:12:18.463Z,11.67
2022-09-20T03:15:04.274Z,11.25
2022-09-20T03:18:10.952Z,9.45
2022-09-20T03:21:17.042Z,9.65
2022-09-20T03:24:03.334Z,9.58
2022-09-20T03:26:55.240Z,9.15
2022-09-20T03:29:47.622Z,8.82
2022-09-20T03:32:42.329Z,8.71
2022-09-20T03:35:42.247Z,8.36
2022-09-20T03:38:31.084Z,8.66
2022-09-20T03:41:17.392Z,8.61
2022-09-20T03:44:08.532Z,8.65
2022-09-20T03:47:13.518Z,8.24
2022-09-20T03:50:18.462Z,8.39
2022-09-20T03:53:17.069Z,7.92
2022-09-20T03:56:06.523Z,7.99
2022-09-20T03:59:11.639Z,7.93
2022-09-20T04:02:16.605Z,7.88
2022-09-20T04:05:16.818Z,7.83
2022-09-20T04:08:25.738Z,7.63
2022-09-20T04:11:26.188Z,7.94
2022-09-20T04:14:31.166Z,7.94
2022-09-20T04:17:16.937Z,7.79
2022-09-20T04:20:02.913Z,7.52
2022-09-20T04:22:51.320Z,7.33
2022-09-20T04:25:41.746Z,7.47
2022-09-20T04:28:49.831Z,7.44
2022-09-20T04:31:37.539Z,7.06
2022-09-20T04:34:50.668Z,7.02
2022-09-20T04:37:39.653Z,7.02
2022-09-20T04:40:42.261Z,7.00
2022-09-20T04:43:28.170Z,7.14
2022-09-20T04:46:20.508Z,7.50
2022-09-20T04:49:06.349Z,7.39
2022-09-20T04:52:04.092Z,7.63
2022-09-20T04:54:49.807Z,8.03
2022-09-20T04:58:01.558Z,8.21
2022-09-20T05:00:53.867Z,8.40
2022-09-20T05:03:59.193Z,8.71
2022-09-20T05:07:03.255Z,8.48
2022-09-20T05:10:07.316Z,8.82
2022-09-20T05:13:15.994Z,8.91
2022-09-20T05:16:04.182Z,8.78
2022-09-20T05:19:29.472Z,8.36
2022-09-20T05:22:28.090Z,8.39
2022-09-20T05:25:36.543Z,8.05
2022-09-20T05:28:31.248Z,7.77
2022-09-20T05:31:28.292Z,8.19
2022-09-20T05:34:24.313Z,7.84
2022-09-20T05:37:29.893Z,7.93
2022-09-20T05:40:26.115Z,7.95
2022-09-20T05:43:20.862Z,7.85
2022-09-20T05:46:13.615Z,8.05
2022-09-20T05:49:07.497Z,8.07
2022-09-20T05:52:32.153Z,8.31
2022-09-20T05:55:40.312Z,8.23
2022-09-20T05:58:35.253Z,8.44
2022-09-20T06:01:21.886Z,8.37
2022-09-20T06:04:22.650Z,9.21
2022-09-20T06:07:24.605Z,8.88
2022-09-20T06:10:31.653Z,9.40
2022-09-20T06:13:30.807Z,8.77
2022-09-20T06:16:34.199Z,9.35
2022-09-20T06:19:35.415Z,9.18
2022-09-20T06:22:29.578Z,9.53
2022-09-20T06:25:21.013Z,9.60
2022-09-20T06:28:18.605Z,9.64
2022-09-20T06:31:09.115Z,9.68
2022-09-20T06:33:59.059Z,9.89
2022-09-20T06:37:08.969Z,10.47
2022-09-20T06:40:37.407Z,10.00
2022-09-20T06:43:23.872Z,10.19
2022-09-20T06:46:10.777Z,9.94
2022-09-20T06:48:57.415Z,10.38
2022-09-20T06:51:43.712Z,9.85
2022-09-20T06:54:29.563Z,9.90
2022-09-20T06:57:35.508Z,10.25
2022-09-20T07:00:21.699Z,10.00
2022-09-20T07:03:08.584Z,10.14
2022-09-20T07:05:54.396Z,10.09
2022-09-20T07:08:40.941Z,10.17
2022-09-20T07:11:27.848Z,10.29
2022-09-20T07:14:15.612Z,10.51
2022-09-20T07:17:01.870Z,10.52
2022-09-20T07:19:48.344Z,10.08
2022-09-20T07:22:34.881Z,9.93
2022-09-20T07:25:21.910Z,10.55
2022-09-20T07:28:07.886Z,10.35
2022-09-20T07:30:54.262Z,10.37
2022-09-20T07:33:40.578Z,10.62
2022-09-20T07:36:27.051Z,10.31
2022-09-20T07:39:13.174Z,10.65
2022-09-20T07:41:59.479Z,10.75
2022-09-20T07:44:45.568Z,10.49
2022-09-20T07:47:33.152Z,10.45
2022-09-20T07:50:19.619Z,10.70
2022-09-20T07:53:06.049Z,10.93
2022-09-20T07:56:03.941Z,11.34
2022-09-20T07:58:52.549Z,11.03
2022-09-20T08:01:40.113Z,11.37
2022-09-20T08:04:26.733Z,11.42
2022-09-20T08:07:12.790Z,11.44
2022-09-20T08:09:59.886Z,12.17
2022-09-20T08:15:55.042Z,12.14
2022-09-20T08:18:52.212Z,11.95
2022-09-20T08:21:38.953Z,12.10
2022-09-20T08:24:26.775Z,12.19
2022-09-20T08:27:13.458Z,12.62
2022-09-20T08:30:01.136Z,11.80
2022-09-20T08:32:47.679Z,12.03
2022-09-20T08:35:38.537Z,12.52
2022-09-20T08:41:38.353Z,12.39
2022-09-20T08:44:29.598Z,12.47
2022-09-20T08:47:21.584Z,12.48
2022-09-20T08:50:10.091Z,13.00
2022-09-20T08:53:01.449Z,12.77
2022-09-20T08:55:47.806Z,12.34
2022-09-20T08:58:34.304Z,12.62
2022-09-20T09:01:23.615Z,13.04
2022-09-20T09:04:14.107Z,12.76
2022-09-20T09:07:00.749Z,13.86
2022-09-20T09:09:47.608Z,13.32
2022-09-20T09:12:35.842Z,13.22
2022-09-20T09:15:30.099Z,13.43
2022-09-20T09:18:16.400Z,12.93
2022-09-20T09:21:06.117Z,12.74
2022-09-20T09:24:05.752Z,12.89
2022-09-20T09:27:17.991Z,12.93
2022-09-20T09:30:20.472Z,13.38
2022-09-20T09:33:28.016Z,13.92
2022-09-20T09:36:23.586Z,13.61
2022-09-20T09:39:16.513Z,13.43
2022-09-20T09:42:20.555Z,13.04
2022-09-20T09:45:27.131Z,12.79
2022-09-20T09:48:19.755Z,12.19
2022-09-20T09:51:11.776Z,13.65
2022-09-20T09:53:58.336Z,13.48
2022-09-20T09:56:57.287Z,13.29
2022-09-20T09:59:57.621Z,13.53
2022-09-20T10:02:53.227Z,13.34
2022-09-20T10:05:42.549Z,14.33
2022-09-20T10:08:53.949Z,14.77
2022-09-20T10:11:58.663Z,14.04
2022-09-20T10:14:49.988Z,14.72
2022-09-20T10:17:43.755Z,14.75
2022-09-20T10:20:53.306Z,14.48
2022-09-20T10:24:03.684Z,14.68
2022-09-20T10:26:59.606Z,14.18
2022-09-20T10:29:53.494Z,15.02
2022-09-20T10:32:51.205Z,14.83
2022-09-20T10:35:51.559Z,15.17
2022-09-20T10:38:38.789Z,14.80
2022-09-20T10:41:46.045Z,14.46
2022-09-20T10:44:35.230Z,15.43
2022-09-20T10:47:23.536Z,15.67
2022-09-20T10:50:29.188Z,15.94
2022-09-20T10:53:52.515Z,15.65
2022-09-20T10:56:47.130Z,14.53
2022-09-20T11:00:14.922Z,14.06
2022-09-20T11:03:09.894Z,13.74
2022-09-20T11:05:56.144Z,13.23
2022-09-20T11:08:42.688Z,13.50
2022-09-20T11:11:34.781Z,12.85
2022-09-20T11:14:32.653Z,12.66
2022-09-20T11:17:33.194Z,12.74
2022-09-20T11:20:20.803Z,13.07
2022-09-20T11:23:13.211Z,12.58
2022-09-20T11:26:02.050Z,13.43
2022-09-20T11:28:55.208Z,14.16
2022-09-20T11:31:42.261Z,13.87
2022-09-20T11:34:29.987Z,14.07
2022-09-20T11:37:15.769Z,13.90
2022-09-20T11:40:04.955Z,14.68
2022-09-20T11:42:50.676Z,14.49
2022-09-20T11:45:37.417Z,14.03
2022-09-20T11:48:46.859Z,13.68
2022-09-20T11:51:54.104Z,13.14
2022-09-20T11:54:55.745Z,13.07
2022-09-20T11:57:41.869Z,13.23
2022-09-20T12:00:31.349Z,13.49
2022-09-20T12:03:37.674Z,13.34
2022-09-20T12:06:32.726Z,13.83
2022-09-20T12:09:25.820Z,14.03
2022-09-20T12:12:16.887Z,13.64
2022-09-20T12:15:05.512Z,14.50
2022-09-20T12:17:52.399Z,14.27
2022-09-20T12:20:45.031Z,14.93
2022-09-20T12:23:43.400Z,15.10
2022-09-20T12:26:35.698Z,15.33
2022-09-20T12:29:24.649Z,15.50
2022-09-20T12:32:31.447Z,15.42
2022-09-20T12:35:38.978Z,15.10
2022-09-20T12:38:26.407Z,15.16
2022-09-20T12:41:12.040Z,15.02
2022-09-20T12:44:19.336Z,15.42
2022-09-20T12:47:11.196Z,15.00
2022-09-20T12:50:16.491Z,14.44
2022-09-20T12:53:04.278Z,14.12
2022-09-20T12:55:56.309Z,14.08
2022-09-20T12:58:52.140Z,13.94
2022-09-20T13:01:39.212Z,13.66
2022-09-20T13:04:44.070Z,14.72
2022-09-20T13:07:43.500Z,14.66
2022-09-20T13:10:31.017Z,14.37
2022-09-20T13:13:27.034Z,14.20
2022-09-20T13:16:20.188Z,14.46
2022-09-20T13:19:07.970Z,14.21
2022-09-20T13:21:58.250Z,13.78
2022-09-20T13:24:45.184Z,13.82
2022-09-20T13:27:32.525Z,13.65
2022-09-20T13:30:20.719Z,13.93
2022-09-20T13:33:17.535Z,13.43
2022-09-20T13:36:04.408Z,13.05
2022-09-20T13:38:51.160Z,13.35
2022-09-20T13:41:37.906Z,13.99
2022-09-20T13:44:25.501Z,13.81
2022-09-20T13:47:24.159Z,14.52
2022-09-20T13:50:18.236Z,15.25
2022-09-20T13:53:27.888Z,14.25
2022-09-20T13:56:26.171Z,13.45
2022-09-20T13:59:18.554Z,13.94
2022-09-20T14:02:04.890Z,13.31
2022-09-20T14:04:51.814Z,13.23
2022-09-20T14:07:37.988Z,13.60
2022-09-20T14:10:28.466Z,13.54
2022-09-20T14:13:14.805Z,13.67
2022-09-20T14:16:00.906Z,13.90
2022-09-20T14:18:48.261Z,13.31
2022-09-20T14:21:34.860Z,14.43
2022-09-20T14:24:26.213Z,13.85
2022-09-20T14:27:12.147Z,14.25
2022-09-20T14:29:57.965Z,15.20
2022-09-20T14:32:45.215Z,15.62
2022-09-20T14:35:31.033Z,15.83
2022-09-20T14:38:24.677Z,15.11
2022-09-20T14:41:12.268Z,15.43
2022-09-20T14:44:00.609Z,14.98
2022-09-20T14:46:46.704Z,16.26
2022-09-20T14:49:33.551Z,16.14
2022-09-20T14:52:26.656Z,15.85
2022-09-20T14:55:16.332Z,14.51
2022-09-20T14:58:03.439Z,14.34
2022-09-20T15:01:01.663Z,14.03
2022-09-20T15:03:47.401Z,13.70
2022-09-20T15:06:35.106Z,13.84
2022-09-20T15:09:21.131Z,14.09
2022-09-20T15:12:13.058Z,13.65
2022-09-20T15:14:58.660Z,13.21
2022-09-20T15:17:45.336Z,13.05
2022-09-20T15:20:30.985Z,12.64
2022-09-20T15:23:17.821Z,12.67
2022-09-20T15:26:04.056Z,12.46
2022-09-20T15:28:50.339Z,12.44
2022-09-20T15:31:36.213Z,12.08
2022-09-20T15:34:22.645Z,12.09
2022-09-20T15:37:08.866Z,12.27
2022-09-20T15:39:55.019Z,12.10
2022-09-20T15:42:41.816Z,12.00
2022-09-20T15:45:29.163Z,11.68
2022-09-20T15:48:15.194Z,11.57
2022-09-20T15:51:02.701Z,11.80
2022-09-20T15:53:58.834Z,11.51
2022-09-20T15:56:45.132Z,11.47
2022-09-20T15:59:33.022Z,11.52
2022-09-20T16:02:20.904Z,11.33
2022-09-20T16:05:09.782Z,11.42
2022-09-20T16:07:57.096Z,11.04
2022-09-20T16:10:43.847Z,10.92
2022-09-20T16:13:29.997Z,10.79
2022-09-20T16:16:17.818Z,11.21
2022-09-20T16:19:22.203Z,11.08
2022-09-20T16:22:08.292Z,10.77
2022-09-20T16:24:54.528Z,10.61
2022-09-20T16:27:40.641Z,11.02
2022-09-20T16:30:26.832Z,11.42
2022-09-20T16:33:13.386Z,11.47
2022-09-20T16:35:59.568Z,11.54
2022-09-20T16:38:45.938Z,10.95
2022-09-20T16:41:34.098Z,11.35
2022-09-20T16:44:20.417Z,11.79
2022-09-20T16:47:09.649Z,12.08
2022-09-20T16:49:56.431Z,12.47
2022-09-20T16:52:42.342Z,11.57
2022-09-20T16:55:28.821Z,11.69
2022-09-20T16:58:15.517Z,10.98
2022-09-20T17:01:08.749Z,10.85
2022-09-20T17:03:54.703Z,11.09
2022-09-20T17:06:43.149Z,10.75
2022-09-20T17:09:29.299Z,10.43
2022-09-20T17:12:19.067Z,10.88
2022-09-20T17:18:44.049Z,10.53
2022-09-20T17:21:31.428Z,10.82
2022-09-20T17:24:18.554Z,10.67
2022-09-20T17:27:04.837Z,10.51
2022-09-20T17:29:56.493Z,10.12
2022-09-20T17:32:46.312Z,10.48
2022-09-20T17:35:32.497Z,10.75
2022-09-20T17:38:18.852Z,11.35
2022-09-20T17:41:09.916Z,11.12
2022-09-20T17:43:56.839Z,10.50
2022-09-20T17:46:43.636Z,10.06
2022-09-20T17:49:31.377Z,10.50
2022-09-20T17:52:19.210Z,10.57
2022-09-20T17:55:08.064Z,10.68
2022-09-20T17:57:54.927Z,10.99
2022-09-20T18:00:41.816Z,10.70
2022-09-20T18:03:28.267Z,10.42
2022-09-20T18:06:33.261Z,10.39
2022-09-20T18:09:21.793Z,10.15
2022-09-20T18:12:07.459Z,10.10
2022-09-20T18:14:56.939Z,10.31
2022-09-20T18:17:45.334Z,10.46
2022-09-20T18:20:31.329Z,10.61
2022-09-20T18:23:17.386Z,10.44
2022-09-20T18:26:23.160Z,10.57
2022-09-20T18:29:11.268Z,10.80
2022-09-20T18:31:59.920Z,11.42
2022-09-20T18:34:51.135Z,10.22
2022-09-20T18:37:37.869Z,9.87
2022-09-20T18:40:25.016Z,9.48
2022-09-20T18:43:11.226Z,9.76
2022-09-20T18:45:57.689Z,9.62
2022-09-20T18:48:46.232Z,9.27
2022-09-20T18:51:35.849Z,9.55
2022-09-20T18:54:26.982Z,9.35
2022-09-20T18:57:13.121Z,9.59
2022-09-20T19:00:03.806Z,10.27
2022-09-20T19:02:53.472Z,10.20
2022-09-20T19:05:51.458Z,9.87
2022-09-20T19:08:38.745Z,9.21
2022-09-20T19:11:31.801Z,8.90
2022-09-20T19:14:22.118Z,9.14
2022-09-20T19:17:09.393Z,9.08
2022-09-20T19:19:57.278Z,9.75
2022-09-20T19:22:51.007Z,9.67
2022-09-20T19:25:44.152Z,9.46
2022-09-20T19:28:30.541Z,9.88
2022-09-20T19:31:35.153Z,9.26
2022-09-20T19:34:21.570Z,9.10
2022-09-20T19:37:19.939Z,9.33
2022-09-20T19:40:10.899Z,9.11
2022-09-20T19:43:05.331Z,8.99
2022-09-20T19:45:55.767Z,8.83
2022-09-20T19:48:48.280Z,8.72
2022-09-20T19:51:36.225Z,8.43
2022-09-20T19:54:24.178Z,8.70
2022-09-20T19:57:12.701Z,9.42
2022-09-20T19:59:58.598Z,9.65
2022-09-20T20:02:46.489Z,8.98
2022-09-20T20:05:32.778Z,8.51
2022-09-20T20:08:30.723Z,9.06
2022-09-20T20:11:35.936Z,8.83
2022-09-20T20:14:24.963Z,9.61
2022-09-20T20:17:14.388Z,9.62
2022-09-20T20:20:10.684Z,9.59
2022-09-20T20:23:02.928Z,9.19
2022-09-20T20:25:49.965Z,9.29
2022-09-20T20:28:36.506Z,8.90
2022-09-20T20:31:22.996Z,9.10
2022-09-20T20:34:08.962Z,8.72
2022-09-20T20:37:00.813Z,8.68
2022-09-20T20:39:47.240Z,8.57
2022-09-20T20:42:33.587Z,8.78
2022-09-20T20:45:21.365Z,8.88
2022-09-20T20:48:07.229Z,8.94
2022-09-20T20:51:03.698Z,9.23
2022-09-20T20:53:50.333Z,9.05
2022-09-20T20:56:36.378Z,9.80
2022-09-20T20:59:22.481Z,9.12
2022-09-20T21:02:09.469Z,9.59
2022-09-20T21:04:55.453Z,9.11
2022-09-20T21:07:41.546Z,9.44
2022-09-20T21:10:27.823Z,9.06
2022-09-20T21:13:14.156Z,9.42
2022-09-20T21:16:19.405Z,9.10
2022-09-20T21:19:05.846Z,9.57
2022-09-20T21:21:51.474Z,9.64
2022-09-20T21:24:37.959Z,9.69
2022-09-20T21:27:24.166Z,9.46
2022-09-20T21:30:11.844Z,9.15
2022-09-20T21:32:59.637Z,9.12
2022-09-20T21:35:45.931Z,8.95
2022-09-20T21:38:34.711Z,9.28
2022-09-20T21:41:25.092Z,9.29
2022-09-20T21:44:12.067Z,9.01
2022-09-20T21:46:58.168Z,8.82
2022-09-20T21:49:44.123Z,8.89
2022-09-20T21:52:30.580Z,8.91
2022-09-20T21:55:16.777Z,8.82
2022-09-20T21:58:02.787Z,8.63
2022-09-20T22:00:58.383Z,8.83
2022-09-20T22:03:48.588Z,8.44
2022-09-20T22:06:36.434Z,8.47
2022-09-20T22:09:24.161Z,8.92
2022-09-20T22:12:10.046Z,9.00
2022-09-20T22:14:55.924Z,8.90
2022-09-20T22:17:41.827Z,8.77
2022-09-20T22:20:28.271Z,9.43
2022-09-20T22:23:13.932Z,8.51
2022-09-20T22:26:01.091Z,8.29
2022-09-20T22:28:48.815Z,8.14
2022-09-20T22:31:36.171Z,8.25
2022-09-20T22:34:22.412Z,8.22
2022-09-20T22:37:08.595Z,7.97
2022-09-20T22:39:54.465Z,7.95
2022-09-20T22:42:40.662Z,8.22
2022-09-20T22:45:26.604Z,8.13
2022-09-20T22:48:12.941Z,8.28
2022-09-20T22:51:02.380Z,8.38
2022-09-20T22:53:48.915Z,8.73
2022-09-20T22:56:36.300Z,8.28
2022-09-20T22:59:22.378Z,8.26
2022-09-20T23:02:08.292Z,8.21
2022-09-20T23:04:54.685Z,8.71
2022-09-20T23:07:40.594Z,8.47
2022-09-20T23:10:26.554Z,8.42
2022-09-20T23:13:12.435Z,8.82
2022-09-20T23:15:58.805Z,9.22
2022-09-20T23:18:45.186Z,9.62
2022-09-20T23:21:31.606Z,9.48
2022-09-20T23:24:17.382Z,8.75
2022-09-20T23:27:03.793Z,9.52
2022-09-20T23:29:49.683Z,9.05
2022-09-20T23:32:36.088Z,8.40
2022-09-20T23:35:21.811Z,8.70
2022-09-20T23:38:08.150Z,8.57
2022-09-20T23:40:54.339Z,7.98
2022-09-20T23:43:40.824Z,7.63
2022-09-20T23:46:27.577Z,7.83
2022-09-20T23:49:13.613Z,7.78
2022-09-20T23:51:59.293Z,8.07
2022-09-20T23:54:45.789Z,8.28
2022-09-20T23:57:31.651Z,8.59
